createdAt,value
2023-02-02T00:01:28.966Z,4
2023-02-02T00:02:29.044Z,5
2023-02-02T00:03:28.984Z,5
2023-02-02T00:05:28.968Z,4
2023-02-02T00:06:28.967Z,4
2023-02-02T00:07:28.973Z,5
2023-02-02T00:08:28.998Z,4
2023-02-02T00:09:28.984Z,4
2023-02-02T00:10:29.020Z,4
2023-02-02T00:11:29.046Z,4
2023-02-02T00:13:29.022Z,4
2023-02-02T00:15:29.017Z,4
2023-02-02T00:16:29.195Z,3
2023-02-02T00:18:29.018Z,3
2023-02-02T00:20:29.019Z,3
2023-02-02T00:23:29.024Z,3
2023-02-02T00:24:29.022Z,3
2023-02-02T00:25:29.030Z,3
2023-02-02T00:27:29.146Z,3
2023-02-02T00:28:29.109Z,3
2023-02-02T00:29:29.114Z,3
2023-02-02T00:30:29.286Z,3
2023-02-02T00:32:29.113Z,3
2023-02-02T00:33:29.113Z,3
2023-02-02T00:34:29.114Z,3
2023-02-02T00:35:29.108Z,3
2023-02-02T00:37:29.115Z,3
2023-02-02T00:39:29.104Z,2
2023-02-02T00:40:29.100Z,3
2023-02-02T00:41:29.115Z,2
2023-02-02T00:42:29.135Z,2
2023-02-02T00:43:29.296Z,3
2023-02-02T00:44:43.412Z,2
2023-02-02T00:50:54.040Z,3
2023-02-02T00:52:45.229Z,3
2023-02-02T00:55:50.541Z,2
2023-02-02T00:57:04.660Z,3
2023-02-02T00:58:55.842Z,2
2023-02-02T01:00:47.097Z,3
2023-02-02T01:04:29.793Z,2
2023-02-02T01:09:26.338Z,3
2023-02-02T01:11:54.590Z,3
2023-02-02T01:18:05.272Z,3
2023-02-02T01:20:33.547Z,3
2023-02-02T01:21:54.163Z,3
2023-02-02T01:22:15.565Z,3
2023-02-02T01:24:28.987Z,3
2023-02-02T01:25:28.980Z,3
2023-02-02T01:26:29.020Z,3
2023-02-02T01:27:28.989Z,3
2023-02-02T01:28:29.000Z,3
2023-02-02T01:29:28.990Z,3
2023-02-02T01:30:28.981Z,4
2023-02-02T01:31:29.995Z,3
2023-02-02T01:32:28.980Z,3
2023-02-02T01:34:28.993Z,4
2023-02-02T01:35:28.986Z,3
2023-02-02T01:36:28.999Z,4
2023-02-02T01:37:28.997Z,4
2023-02-02T01:38:28.980Z,4
2023-02-02T01:39:29.086Z,5
2023-02-02T01:40:29.003Z,5
2023-02-02T01:41:28.991Z,5
2023-02-02T01:42:28.987Z,5
2023-02-02T01:43:28.989Z,5
2023-02-02T01:44:28.995Z,5
2023-02-02T01:45:28.977Z,5
2023-02-02T01:46:28.989Z,5
2023-02-02T01:47:28.987Z,5
2023-02-02T01:48:29.005Z,5
2023-02-02T01:49:28.984Z,5
2023-02-02T01:50:28.991Z,5
2023-02-02T01:51:28.993Z,6
2023-02-02T01:52:29.006Z,5
2023-02-02T01:54:29.039Z,4
2023-02-02T01:55:28.982Z,5
2023-02-02T01:56:28.997Z,5
2023-02-02T01:57:28.986Z,5
2023-02-02T01:58:28.990Z,5
2023-02-02T01:59:29.016Z,5
2023-02-02T02:00:28.994Z,6
2023-02-02T02:01:29.100Z,5
2023-02-02T02:02:29.027Z,5
2023-02-02T02:03:29.033Z,6
2023-02-02T02:05:29.068Z,5
2023-02-02T02:06:29.025Z,6
2023-02-02T02:08:29.029Z,6
2023-02-02T02:09:29.040Z,5
2023-02-02T02:10:29.053Z,5
2023-02-02T02:11:29.040Z,5
2023-02-02T02:14:29.045Z,5
2023-02-02T02:15:29.045Z,5
2023-02-02T02:16:29.104Z,6
2023-02-02T02:17:29.046Z,6
2023-02-02T02:19:29.113Z,7
2023-02-02T02:20:29.126Z,6
2023-02-02T02:21:29.122Z,6
2023-02-02T02:24:29.124Z,5
2023-02-02T02:25:29.125Z,5
2023-02-02T02:27:29.124Z,5
2023-02-02T02:28:29.133Z,5
2023-02-02T02:29:29.145Z,5
2023-02-02T02:30:29.130Z,5
2023-02-02T02:31:29.259Z,5
2023-02-02T02:32:29.124Z,4
2023-02-02T02:34:29.165Z,5
2023-02-02T02:35:29.311Z,5
2023-02-02T02:36:43.431Z,5
2023-02-02T02:40:25.806Z,4
2023-02-02T02:42:54.062Z,4
2023-02-02T02:44:45.249Z,4
2023-02-02T02:46:42.974Z,4
2023-02-02T02:47:28.999Z,4
2023-02-02T02:49:29.003Z,4
2023-02-02T02:50:28.999Z,3
2023-02-02T02:51:28.990Z,3
2023-02-02T02:52:28.996Z,3
2023-02-02T02:53:29.004Z,3
2023-02-02T02:54:29.012Z,3
2023-02-02T02:55:29.008Z,3
2023-02-02T02:56:29.012Z,3
2023-02-02T02:57:28.997Z,3
2023-02-02T02:58:29.015Z,3
2023-02-02T03:00:29.031Z,3
2023-02-02T03:01:29.041Z,3
2023-02-02T03:02:29.123Z,3
2023-02-02T03:04:29.003Z,2
2023-02-02T03:05:29.011Z,2
2023-02-02T03:06:29.003Z,3
2023-02-02T03:07:29.003Z,3
2023-02-02T03:08:29.008Z,3
2023-02-02T03:09:29.010Z,3
2023-02-02T03:10:29.004Z,3
2023-02-02T03:11:29.004Z,3
2023-02-02T03:12:29.011Z,3
2023-02-02T03:13:29.013Z,3
2023-02-02T03:14:29.018Z,3
2023-02-02T03:16:29.004Z,3
2023-02-02T03:17:29.023Z,3
2023-02-02T03:18:29.008Z,3
2023-02-02T03:19:29.007Z,3
2023-02-02T03:20:29.012Z,3
2023-02-02T03:21:29.008Z,3
2023-02-02T03:22:29.033Z,3
2023-02-02T03:23:29.049Z,3
2023-02-02T03:24:29.009Z,3
2023-02-02T03:25:29.010Z,3
2023-02-02T03:26:29.004Z,3
2023-02-02T03:27:29.021Z,3
2023-02-02T03:28:29.020Z,4
2023-02-02T03:29:29.010Z,4
2023-02-02T03:30:29.035Z,4
2023-02-02T03:33:29.058Z,4
2023-02-02T03:34:29.124Z,4
2023-02-02T03:35:29.060Z,4
2023-02-02T03:36:29.087Z,5
2023-02-02T03:37:29.060Z,4
2023-02-02T03:39:29.060Z,4
2023-02-02T03:40:29.063Z,4
2023-02-02T03:41:29.073Z,4
2023-02-02T03:43:29.065Z,4
2023-02-02T03:44:29.062Z,4
2023-02-02T03:45:29.072Z,4
2023-02-02T03:46:29.122Z,4
2023-02-02T03:48:29.158Z,4
2023-02-02T03:50:29.186Z,4
2023-02-02T03:51:29.149Z,4
2023-02-02T03:52:29.157Z,4
2023-02-02T03:53:29.145Z,4
2023-02-02T03:54:29.172Z,4
2023-02-02T03:55:29.152Z,4
2023-02-02T03:56:29.150Z,4
2023-02-02T03:58:29.170Z,4
2023-02-02T03:59:29.155Z,4
2023-02-02T04:00:29.166Z,5
2023-02-02T04:01:29.209Z,6
2023-02-02T04:02:29.173Z,5
2023-02-02T04:03:29.350Z,5
2023-02-02T04:04:43.459Z,5
2023-02-02T04:07:29.035Z,4
2023-02-02T04:09:29.014Z,4
2023-02-02T04:10:29.021Z,4
2023-02-02T04:11:29.023Z,5
2023-02-02T04:12:29.031Z,5
2023-02-02T04:13:29.023Z,4
2023-02-02T04:15:29.030Z,5
2023-02-02T04:16:29.039Z,5
2023-02-02T04:17:29.050Z,5
2023-02-02T04:18:29.042Z,6
2023-02-02T04:19:29.027Z,6
2023-02-02T04:20:29.027Z,6
2023-02-02T04:21:29.025Z,5
2023-02-02T04:22:29.025Z,5
2023-02-02T04:23:29.072Z,6
2023-02-02T04:24:29.028Z,6
2023-02-02T04:25:29.034Z,6
2023-02-02T04:26:29.054Z,7
2023-02-02T04:27:29.030Z,7
2023-02-02T04:28:29.036Z,7
2023-02-02T04:29:29.027Z,7
2023-02-02T04:30:29.038Z,7
2023-02-02T04:31:29.087Z,7
2023-02-02T04:32:29.030Z,7
2023-02-02T04:33:29.051Z,7
2023-02-02T04:34:29.032Z,8
2023-02-02T04:35:29.054Z,7
2023-02-02T04:36:29.031Z,7
2023-02-02T04:37:29.028Z,7
2023-02-02T04:39:29.036Z,9
2023-02-02T04:40:29.038Z,8
2023-02-02T04:41:29.030Z,8
2023-02-02T04:42:29.033Z,8
2023-02-02T04:43:29.031Z,8
2023-02-02T04:44:29.027Z,10
2023-02-02T04:46:29.025Z,8
2023-02-02T04:47:29.044Z,9
2023-02-02T04:49:29.035Z,9
2023-02-02T04:50:29.029Z,9
2023-02-02T04:51:29.042Z,9
2023-02-02T04:52:29.025Z,9
2023-02-02T04:53:29.081Z,9
2023-02-02T04:54:29.088Z,8
2023-02-02T04:55:29.086Z,8
2023-02-02T04:56:29.083Z,8
2023-02-02T04:57:29.081Z,9
2023-02-02T04:59:29.076Z,8
2023-02-02T05:00:29.076Z,8
2023-02-02T05:01:29.073Z,9
2023-02-02T05:02:29.080Z,9
2023-02-02T05:03:29.150Z,8
2023-02-02T05:04:29.145Z,8
2023-02-02T05:06:29.094Z,8
2023-02-02T05:07:29.082Z,8
2023-02-02T05:08:29.088Z,8
2023-02-02T05:09:29.162Z,8
2023-02-02T05:10:29.190Z,8
2023-02-02T05:11:29.163Z,8
2023-02-02T05:12:29.168Z,8
2023-02-02T05:15:29.170Z,8
2023-02-02T05:16:29.396Z,8
2023-02-02T05:19:29.179Z,8
2023-02-02T05:21:29.166Z,8
2023-02-02T05:22:29.180Z,8
2023-02-02T05:23:29.171Z,8
2023-02-02T05:24:29.178Z,8
2023-02-02T05:25:29.366Z,8
2023-02-02T05:26:43.594Z,7
2023-02-02T05:30:25.848Z,8
2023-02-02T05:32:54.103Z,8
2023-02-02T05:34:45.287Z,8
2023-02-02T05:37:50.601Z,8
2023-02-02T05:39:04.731Z,8
2023-02-02T05:40:55.903Z,8
2023-02-02T05:42:47.091Z,7
2023-02-02T05:44:38.281Z,8
2023-02-02T05:46:29.850Z,7
2023-02-02T05:51:26.392Z,8
2023-02-02T05:53:54.653Z,8
2023-02-02T06:00:05.316Z,8
2023-02-02T06:02:33.593Z,9
2023-02-02T06:06:16.039Z,7
2023-02-02T06:07:30.132Z,8
2023-02-02T06:12:26.650Z,8
2023-02-02T06:14:54.909Z,8
2023-02-02T06:17:23.200Z,8
2023-02-02T06:21:05.596Z,8
2023-02-02T06:23:33.866Z,8
2023-02-02T06:42:29.051Z,9
2023-02-02T06:43:29.048Z,9
2023-02-02T06:44:29.055Z,8
2023-02-02T06:45:29.061Z,9
2023-02-02T06:46:29.101Z,8
2023-02-02T06:47:29.055Z,8
2023-02-02T06:48:29.055Z,8
2023-02-02T06:49:29.079Z,8
2023-02-02T06:50:29.065Z,8
2023-02-02T06:51:29.067Z,7
2023-02-02T06:52:29.051Z,9
2023-02-02T06:53:29.089Z,8
2023-02-02T06:54:29.122Z,8
2023-02-02T06:55:29.065Z,9
2023-02-02T06:56:29.045Z,8
2023-02-02T06:57:29.071Z,8
2023-02-02T06:58:29.052Z,8
2023-02-02T06:59:29.062Z,8
2023-02-02T07:00:29.048Z,8
2023-02-02T07:01:29.082Z,9
2023-02-02T07:02:29.105Z,8
2023-02-02T07:03:29.059Z,8
2023-02-02T07:04:29.095Z,8
2023-02-02T07:05:30.706Z,9
2023-02-02T07:06:29.074Z,8
2023-02-02T07:07:29.060Z,9
2023-02-02T07:08:29.083Z,9
2023-02-02T07:09:29.074Z,8
2023-02-02T07:11:13.004Z,9
2023-02-02T07:11:29.062Z,9
2023-02-02T07:12:29.067Z,9
2023-02-02T07:13:29.049Z,8
2023-02-02T07:14:29.058Z,9
2023-02-02T07:15:29.061Z,9
2023-02-02T07:17:29.086Z,9
2023-02-02T07:19:29.065Z,8
2023-02-02T07:20:29.115Z,10
2023-02-02T07:21:29.065Z,9
2023-02-02T07:22:29.108Z,10
2023-02-02T07:23:29.116Z,8
2023-02-02T07:24:29.118Z,10
2023-02-02T07:25:29.119Z,10
2023-02-02T07:27:29.109Z,10
2023-02-02T07:28:29.115Z,10
2023-02-02T07:29:29.133Z,10
2023-02-02T07:30:29.225Z,10
2023-02-02T07:31:29.243Z,10
2023-02-02T07:32:29.106Z,10
2023-02-02T07:33:29.114Z,10
2023-02-02T07:34:29.109Z,9
2023-02-02T07:35:29.107Z,10
2023-02-02T07:36:29.128Z,10
2023-02-02T07:37:29.113Z,10
2023-02-02T07:38:29.129Z,10
2023-02-02T07:39:29.215Z,10
2023-02-02T07:40:29.201Z,11
2023-02-02T07:41:29.209Z,12
2023-02-02T07:42:29.220Z,10
2023-02-02T07:43:29.194Z,10
2023-02-02T07:44:29.206Z,10
2023-02-02T07:45:29.197Z,11
2023-02-02T07:46:29.258Z,12
2023-02-02T07:47:29.204Z,11
2023-02-02T07:48:29.197Z,10
2023-02-02T07:49:29.198Z,10
2023-02-02T07:50:29.215Z,10
2023-02-02T07:51:29.202Z,12
2023-02-02T07:52:29.194Z,11
2023-02-02T07:54:29.196Z,10
2023-02-02T07:56:43.521Z,11
2023-02-02T07:57:57.640Z,10
2023-02-02T08:02:54.237Z,11
2023-02-02T08:04:45.321Z,12
2023-02-02T08:07:15.061Z,11
2023-02-02T08:09:41.814Z,11
2023-02-02T08:10:55.943Z,12
2023-02-02T08:12:47.128Z,13
2023-02-02T08:22:03.475Z,11
2023-02-02T08:30:29.103Z,10
2023-02-02T08:31:29.164Z,9
2023-02-02T08:32:29.087Z,9
2023-02-02T08:33:29.073Z,11
2023-02-02T08:34:29.083Z,9
2023-02-02T08:35:29.074Z,10
2023-02-02T08:36:29.101Z,10
2023-02-02T08:37:29.089Z,10
2023-02-02T08:39:29.076Z,10
2023-02-02T08:40:29.127Z,11
2023-02-02T08:41:29.128Z,9
2023-02-02T08:42:29.083Z,11
2023-02-02T08:45:00.886Z,12
2023-02-02T08:46:01.492Z,10
2023-02-02T08:46:29.340Z,11
2023-02-02T08:47:29.080Z,10
2023-02-02T08:48:29.103Z,9
2023-02-02T08:50:29.092Z,10
2023-02-02T08:51:29.089Z,10
2023-02-02T08:52:29.117Z,11
2023-02-02T08:53:29.092Z,10
2023-02-02T08:55:29.092Z,9
2023-02-02T08:56:29.086Z,10
2023-02-02T08:57:29.090Z,9
2023-02-02T08:58:29.103Z,8
2023-02-02T08:59:29.091Z,9
2023-02-02T09:00:29.099Z,8
2023-02-02T09:01:29.168Z,8
2023-02-02T09:02:29.136Z,7
2023-02-02T09:03:29.089Z,8
2023-02-02T09:04:29.087Z,8
2023-02-02T09:05:29.121Z,8
2023-02-02T09:06:29.102Z,9
2023-02-02T09:07:29.098Z,8
2023-02-02T09:09:29.092Z,9
2023-02-02T09:10:29.130Z,9
2023-02-02T09:11:29.146Z,9
2023-02-02T09:12:29.140Z,9
2023-02-02T09:14:29.136Z,9
2023-02-02T09:15:29.137Z,10
2023-02-02T09:16:29.275Z,9
2023-02-02T09:17:29.140Z,10
2023-02-02T09:18:29.162Z,10
2023-02-02T09:19:29.139Z,9
2023-02-02T09:20:29.135Z,9
2023-02-02T09:21:29.160Z,10
2023-02-02T09:22:29.139Z,10
2023-02-02T09:23:29.134Z,11
2023-02-02T09:24:29.150Z,10
2023-02-02T09:25:29.166Z,9
2023-02-02T09:26:29.321Z,9
2023-02-02T09:27:29.239Z,9
2023-02-02T09:28:29.222Z,9
2023-02-02T09:30:29.225Z,11
2023-02-02T09:31:29.288Z,10
2023-02-02T09:34:29.223Z,10
2023-02-02T09:35:29.271Z,10
2023-02-02T09:36:29.265Z,10
2023-02-02T09:38:29.244Z,11
2023-02-02T09:39:29.228Z,11
2023-02-02T09:41:29.240Z,11
2023-02-02T09:42:29.453Z,13
2023-02-02T09:43:43.544Z,13
2023-02-02T09:44:57.685Z,11
2023-02-02T09:47:25.910Z,11
2023-02-02T09:49:54.195Z,10
2023-02-02T09:51:45.346Z,12
2023-02-02T09:54:13.603Z,11
2023-02-02T09:54:50.657Z,11
2023-02-02T09:56:04.782Z,12
2023-02-02T09:57:56.000Z,10
2023-02-02T09:59:47.170Z,10
2023-02-02T10:03:29.954Z,11
2023-02-02T10:08:34.621Z,11
2023-02-02T10:10:54.711Z,11
2023-02-02T10:13:23.010Z,11
2023-02-02T10:19:33.642Z,9
2023-02-02T10:23:16.059Z,8
2023-02-02T10:24:30.211Z,9
2023-02-02T10:29:28.106Z,10
2023-02-02T10:31:55.167Z,9
2023-02-02T10:34:23.249Z,9
2023-02-02T10:40:33.911Z,11
2023-02-02T10:43:02.960Z,10
2023-02-02T10:50:54.857Z,11
2023-02-02T10:51:36.341Z,10
2023-02-02T10:52:29.103Z,9
2023-02-02T10:56:29.118Z,11
2023-02-02T10:57:29.113Z,11
2023-02-02T10:59:29.164Z,11
2023-02-02T11:00:29.543Z,11
2023-02-02T11:01:29.180Z,11
2023-02-02T11:02:29.143Z,10
2023-02-02T11:03:29.120Z,11
2023-02-02T11:04:29.124Z,11
2023-02-02T11:05:29.105Z,12
2023-02-02T11:06:29.121Z,12
2023-02-02T11:07:29.096Z,11
2023-02-02T11:08:29.120Z,9
2023-02-02T11:09:29.121Z,8
2023-02-02T11:10:29.111Z,9
2023-02-02T11:11:29.123Z,8
2023-02-02T11:12:29.114Z,9
2023-02-02T11:13:29.197Z,8
2023-02-02T11:14:29.113Z,8
2023-02-02T11:15:29.114Z,8
2023-02-02T11:16:41.483Z,8
2023-02-02T11:17:29.156Z,9
2023-02-02T11:18:29.112Z,8
2023-02-02T11:19:29.123Z,8
2023-02-02T11:20:29.127Z,8
2023-02-02T11:21:29.175Z,8
2023-02-02T11:22:29.135Z,7
2023-02-02T11:24:29.116Z,8
2023-02-02T11:25:29.121Z,8
2023-02-02T11:26:29.131Z,8
2023-02-02T11:28:29.119Z,8
2023-02-02T11:29:29.116Z,9
2023-02-02T11:30:29.130Z,8
2023-02-02T11:31:29.192Z,9
2023-02-02T11:32:29.194Z,8
2023-02-02T11:33:29.186Z,9
2023-02-02T11:34:29.183Z,8
2023-02-02T11:35:29.167Z,8
2023-02-02T11:36:29.167Z,8
2023-02-02T11:38:29.161Z,8
2023-02-02T11:40:29.305Z,8
2023-02-02T11:41:29.148Z,8
2023-02-02T11:44:29.178Z,8
2023-02-02T11:45:29.172Z,8
2023-02-02T11:46:29.296Z,8
2023-02-02T11:47:29.173Z,8
2023-02-02T11:49:29.264Z,7
2023-02-02T11:50:29.273Z,8
2023-02-02T11:52:32.233Z,7
2023-02-02T11:53:29.256Z,8
2023-02-02T11:54:29.354Z,7
2023-02-02T11:55:29.256Z,7
2023-02-02T11:57:29.264Z,7
2023-02-02T11:58:29.247Z,8
2023-02-02T11:59:29.258Z,7
2023-02-02T12:00:29.267Z,7
2023-02-02T12:02:29.256Z,7
2023-02-02T12:03:29.290Z,7
2023-02-02T12:04:32.407Z,7
2023-02-02T12:05:43.593Z,7
2023-02-02T12:06:57.710Z,7
2023-02-02T12:09:25.977Z,7
2023-02-02T12:11:54.209Z,8
2023-02-02T12:13:45.423Z,7
2023-02-02T12:18:04.824Z,8
2023-02-02T12:18:41.884Z,7
2023-02-02T12:19:56.014Z,8
2023-02-02T12:21:47.200Z,8
2023-02-02T12:25:29.965Z,8
2023-02-02T12:30:26.950Z,8
2023-02-02T12:32:54.780Z,8
2023-02-02T12:35:23.022Z,8
2023-02-02T12:39:33.178Z,7
2023-02-02T12:41:29.139Z,8
2023-02-02T12:42:29.160Z,9
2023-02-02T12:43:29.189Z,7
2023-02-02T12:44:29.139Z,8
2023-02-02T12:45:29.176Z,8
2023-02-02T12:46:29.139Z,8
2023-02-02T12:47:29.140Z,7
2023-02-02T12:49:29.136Z,8
2023-02-02T12:50:29.146Z,8
2023-02-02T12:51:29.136Z,9
2023-02-02T12:52:29.146Z,11
2023-02-02T12:53:29.148Z,13
2023-02-02T12:54:32.944Z,12
2023-02-02T12:55:29.141Z,11
2023-02-02T12:56:29.150Z,10
2023-02-02T12:57:29.146Z,10
2023-02-02T12:58:29.164Z,9
2023-02-02T12:59:29.161Z,9
2023-02-02T13:00:29.145Z,9
2023-02-02T13:01:29.159Z,9
2023-02-02T13:02:29.196Z,8
2023-02-02T13:03:29.149Z,9
2023-02-02T13:05:29.136Z,9
2023-02-02T13:06:29.151Z,9
2023-02-02T13:07:29.146Z,9
2023-02-02T13:10:29.251Z,8
2023-02-02T13:11:29.155Z,9
2023-02-02T13:12:29.171Z,9
2023-02-02T13:13:29.155Z,9
2023-02-02T13:14:29.145Z,8
2023-02-02T13:15:29.151Z,8
2023-02-02T13:16:29.243Z,8
2023-02-02T13:17:29.213Z,8
2023-02-02T13:18:29.151Z,8
2023-02-02T13:19:29.179Z,8
2023-02-02T13:20:29.147Z,8
2023-02-02T13:21:29.202Z,9
2023-02-02T13:22:29.203Z,9
2023-02-02T13:23:29.208Z,9
2023-02-02T13:24:29.217Z,10
2023-02-02T13:25:29.269Z,9
2023-02-02T13:26:29.369Z,10
2023-02-02T13:27:29.204Z,10
2023-02-02T13:28:29.204Z,9
2023-02-02T13:29:29.206Z,9
2023-02-02T13:30:29.309Z,9
2023-02-02T13:31:29.902Z,9
2023-02-02T13:32:29.201Z,9
2023-02-02T13:33:29.200Z,10
2023-02-02T13:36:29.208Z,11
2023-02-02T13:37:29.212Z,11
2023-02-02T13:38:29.287Z,12
2023-02-02T13:39:29.292Z,11
2023-02-02T13:40:29.301Z,11
2023-02-02T13:41:29.292Z,10
2023-02-02T13:42:29.284Z,11
2023-02-02T13:43:29.286Z,11
2023-02-02T13:44:29.290Z,11
2023-02-02T13:45:29.291Z,12
2023-02-02T13:46:29.307Z,11
2023-02-02T13:47:29.294Z,10
2023-02-02T13:49:29.307Z,9
2023-02-02T13:50:29.295Z,10
2023-02-02T13:51:29.324Z,9
2023-02-02T13:52:29.288Z,9
2023-02-02T13:53:29.300Z,9
2023-02-02T13:54:29.506Z,8
2023-02-02T13:55:43.610Z,8
2023-02-02T13:58:11.857Z,8
2023-02-02T14:03:45.409Z,7
2023-02-02T14:08:41.908Z,7
2023-02-02T14:11:10.157Z,8
2023-02-02T14:11:47.219Z,8
2023-02-02T14:13:02.440Z,7
2023-02-02T15:31:43.689Z,8
2023-02-02T15:34:11.869Z,8
2023-02-02T15:36:40.112Z,8
2023-02-02T15:44:41.938Z,9
2023-02-02T15:47:10.172Z,8
2023-02-02T15:47:47.239Z,8
2023-02-02T15:49:01.365Z,9
2023-02-02T15:59:42.273Z,9
2023-02-02T17:14:43.653Z,13
2023-02-02T18:39:11.923Z,12
2023-02-02T18:41:40.155Z,12
2023-02-02T18:44:45.481Z,13
2023-02-02T18:49:41.974Z,12
2023-02-02T18:52:10.217Z,12
2023-02-02T18:54:01.417Z,12
2023-02-02T18:58:21.274Z,12
2023-02-02T19:02:10.163Z,12
2023-02-02T19:38:29.247Z,14
2023-02-02T20:17:43.700Z,14
2023-02-02T20:20:11.941Z,13
2023-02-02T20:22:40.191Z,13
2023-02-02T20:25:45.647Z,14
2023-02-02T20:28:50.813Z,15
2023-02-02T20:30:42.007Z,13
2023-02-02T20:33:10.252Z,14
2023-02-02T20:33:47.315Z,14
2023-02-02T20:35:01.476Z,14
2023-02-02T20:39:21.273Z,14
2023-02-02T20:48:00.197Z,15
2023-02-02T20:54:10.887Z,15
2023-02-02T21:00:21.537Z,14
2023-02-02T21:09:00.475Z,14
2023-02-02T21:15:11.140Z,13
2023-02-02T22:37:43.761Z,12
2023-02-02T22:40:11.990Z,11
2023-02-02T22:42:40.225Z,12
2023-02-02T22:45:45.543Z,13
2023-02-02T22:48:50.852Z,13
2023-02-02T22:50:04.999Z,12
2023-02-02T22:50:42.038Z,13
2023-02-02T22:53:10.677Z,12
2023-02-02T22:53:47.372Z,13
2023-02-02T22:55:01.487Z,13
2023-02-02T22:57:30.115Z,13
2023-02-02T23:01:12.496Z,13
2023-02-02T23:09:51.448Z,13
2023-02-02T23:16:02.173Z,13
2023-02-02T23:30:51.798Z,13
2023-02-02T23:33:19.975Z,13
2023-02-02T23:39:30.047Z,13
2023-02-02T23:40:44.028Z,13
2023-02-02T23:41:45.724Z,13
2023-02-02T23:52:29.380Z,12
